sensor_id;sensor_type;location;lat;lon;timestamp;P1;durP1;ratioP1;P2;durP2;ratioP2
58017;SDS011;43810;50.860;19.226;2022-07-24T00:02:04;190.77;;;53.03;;
58017;SDS011;43810;50.860;19.226;2022-07-24T00:04:30;177.88;;;51.75;;
58017;SDS011;43810;50.860;19.226;2022-07-24T00:06:55;169.88;;;50.67;;
58017;SDS011;43810;50.860;19.226;2022-07-24T00:09:21;190.93;;;52.03;;
58017;SDS011;43810;50.860;19.226;2022-07-24T00:11:46;178.88;;;50.28;;
58017;SDS011;43810;50.860;19.226;2022-07-24T00:14:12;184.63;;;53.15;;
58017;SDS011;43810;50.860;19.226;2022-07-24T00:16:37;199.70;;;55.25;;
58017;SDS011;43810;50.860;19.226;2022-07-24T00:19:03;196.02;;;54.55;;
58017;SDS011;43810;50.860;19.226;2022-07-24T00:21:28;190.05;;;54.30;;
58017;SDS011;43810;50.860;19.226;2022-07-24T00:23:54;191.57;;;54.33;;
58017;SDS011;43810;50.860;19.226;2022-07-24T00:26:20;195.95;;;53.85;;
58017;SDS011;43810;50.860;19.226;2022-07-24T00:28:45;200.57;;;53.97;;
58017;SDS011;43810;50.860;19.226;2022-07-24T00:31:12;204.65;;;56.42;;
58017;SDS011;43810;50.860;19.226;2022-07-24T00:33:38;204.70;;;56.25;;
58017;SDS011;43810;50.860;19.226;2022-07-24T00:36:03;206.48;;;57.83;;
58017;SDS011;43810;50.860;19.226;2022-07-24T00:38:29;211.40;;;56.20;;
58017;SDS011;43810;50.860;19.226;2022-07-24T00:40:54;205.00;;;57.35;;
58017;SDS011;43810;50.860;19.226;2022-07-24T00:43:20;224.70;;;59.75;;
58017;SDS011;43810;50.860;19.226;2022-07-24T00:45:46;207.98;;;56.53;;
58017;SDS011;43810;50.860;19.226;2022-07-24T00:48:12;198.07;;;57.17;;
58017;SDS011;43810;50.860;19.226;2022-07-24T00:50:37;200.10;;;54.88;;
58017;SDS011;43810;50.860;19.226;2022-07-24T00:53:03;190.02;;;54.28;;
58017;SDS011;43810;50.860;19.226;2022-07-24T00:55:29;204.00;;;57.95;;
58017;SDS011;43810;50.860;19.226;2022-07-24T00:57:55;189.93;;;53.80;;
58017;SDS011;43810;50.860;19.226;2022-07-24T01:00:20;201.00;;;55.92;;
58017;SDS011;43810;50.860;19.226;2022-07-24T01:02:47;208.52;;;55.70;;
58017;SDS011;43810;50.860;19.226;2022-07-24T01:05:13;226.43;;;56.78;;
58017;SDS011;43810;50.860;19.226;2022-07-24T01:07:39;182.60;;;52.95;;
58017;SDS011;43810;50.860;19.226;2022-07-24T01:10:05;199.55;;;52.55;;
58017;SDS011;43810;50.860;19.226;2022-07-24T01:12:31;222.75;;;53.97;;
58017;SDS011;43810;50.860;19.226;2022-07-24T01:14:57;199.60;;;52.92;;
58017;SDS011;43810;50.860;19.226;2022-07-24T01:17:23;189.68;;;52.65;;
58017;SDS011;43810;50.860;19.226;2022-07-24T01:19:48;211.07;;;54.63;;
58017;SDS011;43810;50.860;19.226;2022-07-24T01:22:15;193.90;;;51.88;;
58017;SDS011;43810;50.860;19.226;2022-07-24T01:24:41;175.38;;;48.97;;
58017;SDS011;43810;50.860;19.226;2022-07-24T01:27:06;166.52;;;49.50;;
58017;SDS011;43810;50.860;19.226;2022-07-24T01:29:33;172.13;;;49.30;;
58017;SDS011;43810;50.860;19.226;2022-07-24T01:31:58;176.85;;;48.92;;
58017;SDS011;43810;50.860;19.226;2022-07-24T01:34:24;159.70;;;45.35;;
58017;SDS011;43810;50.860;19.226;2022-07-24T01:36:50;157.77;;;45.55;;
58017;SDS011;43810;50.860;19.226;2022-07-24T01:39:15;159.73;;;46.38;;
58017;SDS011;43810;50.860;19.226;2022-07-24T01:41:41;172.77;;;47.15;;
58017;SDS011;43810;50.860;19.226;2022-07-24T01:44:07;166.40;;;45.75;;
58017;SDS011;43810;50.860;19.226;2022-07-24T01:46:32;170.02;;;46.92;;
58017;SDS011;43810;50.860;19.226;2022-07-24T01:48:58;155.40;;;44.95;;
58017;SDS011;43810;50.860;19.226;2022-07-24T01:51:23;163.57;;;43.88;;
58017;SDS011;43810;50.860;19.226;2022-07-24T01:53:49;167.27;;;44.83;;
58017;SDS011;43810;50.860;19.226;2022-07-24T01:56:14;149.73;;;43.25;;
58017;SDS011;43810;50.860;19.226;2022-07-24T01:58:40;145.73;;;42.85;;
58017;SDS011;43810;50.860;19.226;2022-07-24T02:01:05;150.82;;;42.97;;
58017;SDS011;43810;50.860;19.226;2022-07-24T02:03:31;150.30;;;41.88;;
58017;SDS011;43810;50.860;19.226;2022-07-24T02:05:57;145.38;;;39.97;;
58017;SDS011;43810;50.860;19.226;2022-07-24T02:08:22;158.10;;;41.72;;
58017;SDS011;43810;50.860;19.226;2022-07-24T02:10:48;147.75;;;42.20;;
58017;SDS011;43810;50.860;19.226;2022-07-24T02:13:14;156.13;;;40.30;;
58017;SDS011;43810;50.860;19.226;2022-07-24T02:15:39;148.68;;;40.38;;
58017;SDS011;43810;50.860;19.226;2022-07-24T02:18:05;144.98;;;40.03;;
58017;SDS011;43810;50.860;19.226;2022-07-24T02:20:30;154.60;;;42.53;;
58017;SDS011;43810;50.860;19.226;2022-07-24T02:22:56;152.07;;;43.80;;
58017;SDS011;43810;50.860;19.226;2022-07-24T02:25:22;150.00;;;41.53;;
58017;SDS011;43810;50.860;19.226;2022-07-24T02:27:47;145.98;;;40.60;;
58017;SDS011;43810;50.860;19.226;2022-07-24T02:30:15;152.45;;;43.25;;
58017;SDS011;43810;50.860;19.226;2022-07-24T02:32:41;163.80;;;42.90;;
58017;SDS011;43810;50.860;19.226;2022-07-24T02:35:06;134.73;;;39.28;;
58017;SDS011;43810;50.860;19.226;2022-07-24T02:37:32;142.68;;;41.40;;
58017;SDS011;43810;50.860;19.226;2022-07-24T02:39:59;133.77;;;39.67;;
58017;SDS011;43810;50.860;19.226;2022-07-24T02:42:25;130.23;;;38.80;;
58017;SDS011;43810;50.860;19.226;2022-07-24T02:44:51;122.53;;;36.67;;
58017;SDS011;43810;50.860;19.226;2022-07-24T02:47:16;129.35;;;37.83;;
58017;SDS011;43810;50.860;19.226;2022-07-24T02:49:42;120.35;;;37.05;;
58017;SDS011;43810;50.860;19.226;2022-07-24T02:52:07;128.00;;;37.28;;
58017;SDS011;43810;50.860;19.226;2022-07-24T02:54:33;126.22;;;38.80;;
58017;SDS011;43810;50.860;19.226;2022-07-24T02:56:59;145.13;;;37.85;;
58017;SDS011;43810;50.860;19.226;2022-07-24T02:59:24;143.13;;;38.83;;
58017;SDS011;43810;50.860;19.226;2022-07-24T03:01:49;124.05;;;36.88;;
58017;SDS011;43810;50.860;19.226;2022-07-24T03:04:15;144.38;;;38.10;;
58017;SDS011;43810;50.860;19.226;2022-07-24T03:06:40;131.10;;;37.75;;
58017;SDS011;43810;50.860;19.226;2022-07-24T03:09:06;135.57;;;36.90;;
58017;SDS011;43810;50.860;19.226;2022-07-24T03:11:32;143.57;;;37.38;;
58017;SDS011;43810;50.860;19.226;2022-07-24T03:13:57;156.27;;;37.20;;
58017;SDS011;43810;50.860;19.226;2022-07-24T03:16:23;139.95;;;36.97;;
58017;SDS011;43810;50.860;19.226;2022-07-24T03:18:49;141.07;;;37.85;;
58017;SDS011;43810;50.860;19.226;2022-07-24T03:21:15;138.38;;;38.50;;
58017;SDS011;43810;50.860;19.226;2022-07-24T03:23:41;128.20;;;37.00;;
58017;SDS011;43810;50.860;19.226;2022-07-24T03:26:07;126.55;;;36.90;;
58017;SDS011;43810;50.860;19.226;2022-07-24T03:28:32;124.00;;;34.58;;
58017;SDS011;43810;50.860;19.226;2022-07-24T03:30:58;130.15;;;35.10;;
58017;SDS011;43810;50.860;19.226;2022-07-24T03:33:25;123.75;;;35.03;;
58017;SDS011;43810;50.860;19.226;2022-07-24T03:35:51;135.93;;;35.40;;
58017;SDS011;43810;50.860;19.226;2022-07-24T03:38:16;132.05;;;35.15;;
58017;SDS011;43810;50.860;19.226;2022-07-24T03:40:42;124.05;;;35.08;;
58017;SDS011;43810;50.860;19.226;2022-07-24T03:43:08;132.48;;;35.17;;
58017;SDS011;43810;50.860;19.226;2022-07-24T03:45:33;129.18;;;34.08;;
58017;SDS011;43810;50.860;19.226;2022-07-24T03:47:59;124.20;;;36.22;;
58017;SDS011;43810;50.860;19.226;2022-07-24T03:50:25;127.75;;;36.10;;
58017;SDS011;43810;50.860;19.226;2022-07-24T03:52:50;137.60;;;35.67;;
58017;SDS011;43810;50.860;19.226;2022-07-24T03:55:16;133.32;;;37.95;;
58017;SDS011;43810;50.860;19.226;2022-07-24T03:57:41;130.48;;;35.58;;
58017;SDS011;43810;50.860;19.226;2022-07-24T04:00:07;137.73;;;36.72;;
58017;SDS011;43810;50.860;19.226;2022-07-24T04:02:34;129.50;;;35.75;;
58017;SDS011;43810;50.860;19.226;2022-07-24T04:04:59;123.32;;;35.03;;
58017;SDS011;43810;50.860;19.226;2022-07-24T04:07:25;136.10;;;36.72;;
58017;SDS011;43810;50.860;19.226;2022-07-24T04:09:51;121.25;;;36.08;;
58017;SDS011;43810;50.860;19.226;2022-07-24T04:12:17;140.30;;;37.47;;
58017;SDS011;43810;50.860;19.226;2022-07-24T04:14:43;119.43;;;34.88;;
58017;SDS011;43810;50.860;19.226;2022-07-24T04:17:09;123.30;;;36.55;;
58017;SDS011;43810;50.860;19.226;2022-07-24T04:19:34;139.23;;;36.00;;
58017;SDS011;43810;50.860;19.226;2022-07-24T04:22:00;133.88;;;36.40;;
58017;SDS011;43810;50.860;19.226;2022-07-24T04:24:26;133.43;;;36.55;;
58017;SDS011;43810;50.860;19.226;2022-07-24T04:26:51;119.82;;;35.05;;
58017;SDS011;43810;50.860;19.226;2022-07-24T04:29:17;111.55;;;34.95;;
58017;SDS011;43810;50.860;19.226;2022-07-24T04:31:43;106.72;;;34.38;;
58017;SDS011;43810;50.860;19.226;2022-07-24T04:34:08;103.95;;;31.77;;
58017;SDS011;43810;50.860;19.226;2022-07-24T04:36:34;100.50;;;32.90;;
58017;SDS011;43810;50.860;19.226;2022-07-24T04:39:00;106.10;;;31.77;;
58017;SDS011;43810;50.860;19.226;2022-07-24T04:41:25;90.90;;;30.92;;
58017;SDS011;43810;50.860;19.226;2022-07-24T04:43:51;87.20;;;31.13;;
58017;SDS011;43810;50.860;19.226;2022-07-24T04:46:17;84.10;;;30.15;;
58017;SDS011;43810;50.860;19.226;2022-07-24T04:48:42;76.90;;;27.80;;
58017;SDS011;43810;50.860;19.226;2022-07-24T04:51:08;76.07;;;28.13;;
58017;SDS011;43810;50.860;19.226;2022-07-24T04:53:33;65.80;;;25.20;;
58017;SDS011;43810;50.860;19.226;2022-07-24T04:55:59;59.70;;;24.67;;
58017;SDS011;43810;50.860;19.226;2022-07-24T04:58:27;54.45;;;25.73;;
58017;SDS011;43810;50.860;19.226;2022-07-24T05:00:53;58.33;;;24.45;;
58017;SDS011;43810;50.860;19.226;2022-07-24T05:03:19;57.08;;;24.80;;
58017;SDS011;43810;50.860;19.226;2022-07-24T05:05:44;41.13;;;22.20;;
58017;SDS011;43810;50.860;19.226;2022-07-24T05:08:10;38.95;;;20.55;;
58017;SDS011;43810;50.860;19.226;2022-07-24T05:10:35;36.35;;;19.08;;
58017;SDS011;43810;50.860;19.226;2022-07-24T05:13:01;31.10;;;18.35;;
58017;SDS011;43810;50.860;19.226;2022-07-24T05:15:27;31.38;;;17.92;;
58017;SDS011;43810;50.860;19.226;2022-07-24T05:17:53;32.97;;;19.15;;
58017;SDS011;43810;50.860;19.226;2022-07-24T05:20:18;28.63;;;16.63;;
58017;SDS011;43810;50.860;19.226;2022-07-24T05:22:44;26.13;;;15.23;;
58017;SDS011;43810;50.860;19.226;2022-07-24T05:25:10;26.38;;;15.85;;
58017;SDS011;43810;50.860;19.226;2022-07-24T05:27:35;24.52;;;15.93;;
58017;SDS011;43810;50.860;19.226;2022-07-24T05:30:01;25.30;;;15.00;;
58017;SDS011;43810;50.860;19.226;2022-07-24T05:32:26;25.17;;;14.45;;
58017;SDS011;43810;50.860;19.226;2022-07-24T05:34:52;24.02;;;15.05;;
58017;SDS011;43810;50.860;19.226;2022-07-24T05:37:17;20.70;;;14.50;;
58017;SDS011;43810;50.860;19.226;2022-07-24T05:39:43;26.67;;;14.35;;
58017;SDS011;43810;50.860;19.226;2022-07-24T05:42:08;20.90;;;13.75;;
58017;SDS011;43810;50.860;19.226;2022-07-24T05:44:34;18.88;;;13.07;;
58017;SDS011;43810;50.860;19.226;2022-07-24T05:47:00;20.52;;;12.57;;
58017;SDS011;43810;50.860;19.226;2022-07-24T05:49:25;19.17;;;13.32;;
58017;SDS011;43810;50.860;19.226;2022-07-24T05:51:51;21.90;;;13.93;;
58017;SDS011;43810;50.860;19.226;2022-07-24T05:54:17;21.48;;;12.52;;
58017;SDS011;43810;50.860;19.226;2022-07-24T05:56:42;17.50;;;12.05;;
58017;SDS011;43810;50.860;19.226;2022-07-24T05:59:08;18.10;;;12.50;;
58017;SDS011;43810;50.860;19.226;2022-07-24T06:01:33;17.17;;;12.35;;
58017;SDS011;43810;50.860;19.226;2022-07-24T06:03:59;17.13;;;12.40;;
58017;SDS011;43810;50.860;19.226;2022-07-24T06:06:25;16.27;;;11.85;;
58017;SDS011;43810;50.860;19.226;2022-07-24T06:08:50;19.40;;;11.63;;
58017;SDS011;43810;50.860;19.226;2022-07-24T06:11:15;20.02;;;11.32;;
58017;SDS011;43810;50.860;19.226;2022-07-24T06:13:43;16.20;;;9.95;;
58017;SDS011;43810;50.860;19.226;2022-07-24T06:16:08;17.15;;;12.02;;
58017;SDS011;43810;50.860;19.226;2022-07-24T06:18:34;15.73;;;11.45;;
58017;SDS011;43810;50.860;19.226;2022-07-24T06:20:59;13.65;;;10.75;;
58017;SDS011;43810;50.860;19.226;2022-07-24T06:23:25;17.08;;;10.40;;
58017;SDS011;43810;50.860;19.226;2022-07-24T06:25:50;16.33;;;10.73;;
58017;SDS011;43810;50.860;19.226;2022-07-24T06:28:16;16.05;;;10.77;;
58017;SDS011;43810;50.860;19.226;2022-07-24T06:30:42;12.48;;;9.02;;
58017;SDS011;43810;50.860;19.226;2022-07-24T06:33:07;19.27;;;10.55;;
58017;SDS011;43810;50.860;19.226;2022-07-24T06:35:33;11.73;;;9.30;;
58017;SDS011;43810;50.860;19.226;2022-07-24T06:37:59;15.13;;;9.43;;
58017;SDS011;43810;50.860;19.226;2022-07-24T06:40:25;12.20;;;8.68;;
58017;SDS011;43810;50.860;19.226;2022-07-24T06:42:52;14.68;;;8.13;;
58017;SDS011;43810;50.860;19.226;2022-07-24T06:45:17;16.27;;;8.55;;
58017;SDS011;43810;50.860;19.226;2022-07-24T06:47:43;15.30;;;8.27;;
58017;SDS011;43810;50.860;19.226;2022-07-24T06:50:09;12.88;;;8.70;;
58017;SDS011;43810;50.860;19.226;2022-07-24T06:52:35;10.95;;;8.60;;
58017;SDS011;43810;50.860;19.226;2022-07-24T06:55:00;14.18;;;8.40;;
58017;SDS011;43810;50.860;19.226;2022-07-24T06:57:27;11.98;;;8.05;;
58017;SDS011;43810;50.860;19.226;2022-07-24T06:59:52;13.93;;;8.85;;
58017;SDS011;43810;50.860;19.226;2022-07-24T07:02:18;16.15;;;9.77;;
58017;SDS011;43810;50.860;19.226;2022-07-24T07:04:44;16.23;;;9.02;;
58017;SDS011;43810;50.860;19.226;2022-07-24T07:07:09;11.07;;;9.05;;
58017;SDS011;43810;50.860;19.226;2022-07-24T07:09:35;10.50;;;8.43;;
58017;SDS011;43810;50.860;19.226;2022-07-24T07:12:01;12.10;;;8.00;;
58017;SDS011;43810;50.860;19.226;2022-07-24T07:14:27;13.00;;;7.80;;
58017;SDS011;43810;50.860;19.226;2022-07-24T07:16:52;12.15;;;8.13;;
58017;SDS011;43810;50.860;19.226;2022-07-24T07:19:18;11.38;;;8.05;;
58017;SDS011;43810;50.860;19.226;2022-07-24T07:21:43;10.63;;;7.50;;
58017;SDS011;43810;50.860;19.226;2022-07-24T07:24:09;13.05;;;7.88;;
58017;SDS011;43810;50.860;19.226;2022-07-24T07:26:43;9.55;;;7.80;;
58017;SDS011;43810;50.860;19.226;2022-07-24T07:29:10;9.82;;;7.55;;
58017;SDS011;43810;50.860;19.226;2022-07-24T07:31:35;10.70;;;7.50;;
58017;SDS011;43810;50.860;19.226;2022-07-24T07:34:03;12.60;;;8.35;;
58017;SDS011;43810;50.860;19.226;2022-07-24T07:36:29;9.35;;;7.57;;
58017;SDS011;43810;50.860;19.226;2022-07-24T07:38:54;8.93;;;7.25;;
58017;SDS011;43810;50.860;19.226;2022-07-24T07:41:38;14.27;;;6.65;;
58017;SDS011;43810;50.860;19.226;2022-07-24T07:46:31;7.57;;;6.75;;
58017;SDS011;43810;50.860;19.226;2022-07-24T07:48:56;10.02;;;6.57;;
58017;SDS011;43810;50.860;19.226;2022-07-24T07:51:25;9.75;;;6.50;;
58017;SDS011;43810;50.860;19.226;2022-07-24T07:53:54;8.20;;;6.00;;
58017;SDS011;43810;50.860;19.226;2022-07-24T07:56:20;9.20;;;5.32;;
58017;SDS011;43810;50.860;19.226;2022-07-24T07:58:49;7.50;;;5.07;;
58017;SDS011;43810;50.860;19.226;2022-07-24T08:01:15;4.90;;;3.72;;
58017;SDS011;43810;50.860;19.226;2022-07-24T08:03:41;6.20;;;3.50;;
58017;SDS011;43810;50.860;19.226;2022-07-24T08:06:07;4.72;;;3.30;;
58017;SDS011;43810;50.860;19.226;2022-07-24T08:08:33;3.83;;;3.40;;
58017;SDS011;43810;50.860;19.226;2022-07-24T08:10:58;4.40;;;4.00;;
58017;SDS011;43810;50.860;19.226;2022-07-24T08:13:24;7.30;;;3.97;;
58017;SDS011;43810;50.860;19.226;2022-07-24T08:15:49;6.65;;;4.35;;
58017;SDS011;43810;50.860;19.226;2022-07-24T08:18:15;5.18;;;4.10;;
58017;SDS011;43810;50.860;19.226;2022-07-24T08:20:40;4.93;;;4.32;;
58017;SDS011;43810;50.860;19.226;2022-07-24T08:23:18;6.25;;;4.57;;
58017;SDS011;43810;50.860;19.226;2022-07-24T08:25:47;5.22;;;4.28;;
58017;SDS011;43810;50.860;19.226;2022-07-24T08:28:15;5.28;;;4.25;;
58017;SDS011;43810;50.860;19.226;2022-07-24T08:30:46;6.15;;;3.97;;
58017;SDS011;43810;50.860;19.226;2022-07-24T08:33:15;7.60;;;5.20;;
58017;SDS011;43810;50.860;19.226;2022-07-24T08:35:41;6.57;;;3.88;;
58017;SDS011;43810;50.860;19.226;2022-07-24T08:38:07;6.53;;;4.50;;
58017;SDS011;43810;50.860;19.226;2022-07-24T08:40:33;5.10;;;4.15;;
58017;SDS011;43810;50.860;19.226;2022-07-24T08:43:00;5.32;;;4.07;;
58017;SDS011;43810;50.860;19.226;2022-07-24T08:45:27;7.63;;;4.53;;
58017;SDS011;43810;50.860;19.226;2022-07-24T08:47:53;6.93;;;4.15;;
58017;SDS011;43810;50.860;19.226;2022-07-24T08:50:23;4.57;;;3.85;;
58017;SDS011;43810;50.860;19.226;2022-07-24T08:52:49;7.03;;;3.97;;
58017;SDS011;43810;50.860;19.226;2022-07-24T08:55:15;5.93;;;3.55;;
58017;SDS011;43810;50.860;19.226;2022-07-24T08:57:48;5.07;;;3.25;;
58017;SDS011;43810;50.860;19.226;2022-07-24T09:00:15;4.47;;;3.70;;
58017;SDS011;43810;50.860;19.226;2022-07-24T09:02:43;4.85;;;3.50;;
58017;SDS011;43810;50.860;19.226;2022-07-24T09:05:12;4.35;;;3.40;;
58017;SDS011;43810;50.860;19.226;2022-07-24T09:07:38;4.78;;;3.15;;
58017;SDS011;43810;50.860;19.226;2022-07-24T09:10:04;3.78;;;3.03;;
58017;SDS011;43810;50.860;19.226;2022-07-24T09:12:37;6.47;;;3.42;;
58017;SDS011;43810;50.860;19.226;2022-07-24T09:15:20;6.22;;;3.40;;
58017;SDS011;43810;50.860;19.226;2022-07-24T09:17:50;4.85;;;2.70;;
58017;SDS011;43810;50.860;19.226;2022-07-24T09:20:18;3.67;;;2.65;;
58017;SDS011;43810;50.860;19.226;2022-07-24T09:22:44;4.43;;;2.45;;
58017;SDS011;43810;50.860;19.226;2022-07-24T09:27:45;4.90;;;2.50;;
58017;SDS011;43810;50.860;19.226;2022-07-24T09:32:40;4.82;;;2.90;;
58017;SDS011;43810;50.860;19.226;2022-07-24T09:35:06;4.20;;;2.20;;
58017;SDS011;43810;50.860;19.226;2022-07-24T09:37:32;4.30;;;2.42;;
58017;SDS011;43810;50.860;19.226;2022-07-24T09:40:08;3.85;;;2.35;;
58017;SDS011;43810;50.860;19.226;2022-07-24T09:42:34;3.40;;;2.17;;
58017;SDS011;43810;50.860;19.226;2022-07-24T09:45:04;2.40;;;2.20;;
58017;SDS011;43810;50.860;19.226;2022-07-24T09:47:31;2.45;;;2.03;;
58017;SDS011;43810;50.860;19.226;2022-07-24T09:50:09;4.50;;;2.20;;
58017;SDS011;43810;50.860;19.226;2022-07-24T09:52:35;2.10;;;1.75;;
58017;SDS011;43810;50.860;19.226;2022-07-24T09:55:02;2.53;;;2.00;;
58017;SDS011;43810;50.860;19.226;2022-07-24T09:57:28;4.00;;;2.08;;
58017;SDS011;43810;50.860;19.226;2022-07-24T09:59:55;2.67;;;1.98;;
58017;SDS011;43810;50.860;19.226;2022-07-24T10:02:22;1.67;;;1.55;;
58017;SDS011;43810;50.860;19.226;2022-07-24T10:04:48;4.75;;;1.80;;
58017;SDS011;43810;50.860;19.226;2022-07-24T10:07:15;1.73;;;1.60;;
58017;SDS011;43810;50.860;19.226;2022-07-24T10:09:51;2.92;;;1.65;;
58017;SDS011;43810;50.860;19.226;2022-07-24T10:12:18;2.38;;;1.50;;
58017;SDS011;43810;50.860;19.226;2022-07-24T10:14:45;2.47;;;1.75;;
58017;SDS011;43810;50.860;19.226;2022-07-24T10:17:11;1.60;;;1.45;;
58017;SDS011;43810;50.860;19.226;2022-07-24T10:19:41;2.45;;;1.60;;
58017;SDS011;43810;50.860;19.226;2022-07-24T10:22:12;1.52;;;1.42;;
58017;SDS011;43810;50.860;19.226;2022-07-24T10:24:49;1.67;;;1.40;;
58017;SDS011;43810;50.860;19.226;2022-07-24T10:27:24;1.38;;;1.27;;
58017;SDS011;43810;50.860;19.226;2022-07-24T10:29:54;2.83;;;1.85;;
58017;SDS011;43810;50.860;19.226;2022-07-24T10:32:21;1.83;;;1.40;;
58017;SDS011;43810;50.860;19.226;2022-07-24T10:37:33;1.92;;;1.70;;
58017;SDS011;43810;50.860;19.226;2022-07-24T10:45:21;2.80;;;1.40;;
58017;SDS011;43810;50.860;19.226;2022-07-24T10:47:48;2.55;;;1.70;;
58017;SDS011;43810;50.860;19.226;2022-07-24T10:50:14;1.40;;;1.30;;
58017;SDS011;43810;50.860;19.226;2022-07-24T10:52:42;1.30;;;1.20;;
58017;SDS011;43810;50.860;19.226;2022-07-24T10:57:59;2.80;;;1.27;;
58017;SDS011;43810;50.860;19.226;2022-07-24T11:03:04;1.48;;;1.38;;
58017;SDS011;43810;50.860;19.226;2022-07-24T11:05:37;1.83;;;1.40;;
58017;SDS011;43810;50.860;19.226;2022-07-24T11:10:45;2.55;;;1.27;;
58017;SDS011;43810;50.860;19.226;2022-07-24T11:18:36;1.75;;;1.35;;
58017;SDS011;43810;50.860;19.226;2022-07-24T11:21:02;2.00;;;1.65;;
58017;SDS011;43810;50.860;19.226;2022-07-24T11:23:28;1.88;;;1.20;;
58017;SDS011;43810;50.860;19.226;2022-07-24T11:26:36;1.13;;;0.98;;
58017;SDS011;43810;50.860;19.226;2022-07-24T11:31:30;2.05;;;1.08;;
58017;SDS011;43810;50.860;19.226;2022-07-24T11:33:57;3.10;;;1.05;;
58017;SDS011;43810;50.860;19.226;2022-07-24T11:36:25;1.35;;;1.10;;
58017;SDS011;43810;50.860;19.226;2022-07-24T11:38:51;0.93;;;0.93;;
58017;SDS011;43810;50.860;19.226;2022-07-24T11:41:17;1.73;;;0.90;;
58017;SDS011;43810;50.860;19.226;2022-07-24T11:43:49;1.58;;;0.93;;
58017;SDS011;43810;50.860;19.226;2022-07-24T11:46:15;1.00;;;0.90;;
58017;SDS011;43810;50.860;19.226;2022-07-24T11:48:40;1.48;;;1.00;;
58017;SDS011;43810;50.860;19.226;2022-07-24T11:51:06;2.35;;;1.25;;
58017;SDS011;43810;50.860;19.226;2022-07-24T11:53:31;1.40;;;1.00;;
58017;SDS011;43810;50.860;19.226;2022-07-24T11:56:02;1.00;;;0.90;;
58017;SDS011;43810;50.860;19.226;2022-07-24T11:58:28;0.90;;;0.82;;
58017;SDS011;43810;50.860;19.226;2022-07-24T12:00:53;1.75;;;0.70;;
58017;SDS011;43810;50.860;19.226;2022-07-24T12:03:19;1.08;;;0.70;;
58017;SDS011;43810;50.860;19.226;2022-07-24T12:05:45;3.70;;;0.90;;
58017;SDS011;43810;50.860;19.226;2022-07-24T12:08:21;2.45;;;1.00;;
58017;SDS011;43810;50.860;19.226;2022-07-24T12:10:54;1.63;;;0.80;;
58017;SDS011;43810;50.860;19.226;2022-07-24T12:13:19;1.27;;;0.82;;
58017;SDS011;43810;50.860;19.226;2022-07-24T12:15:45;2.00;;;1.00;;
58017;SDS011;43810;50.860;19.226;2022-07-24T12:18:10;2.75;;;0.77;;
58017;SDS011;43810;50.860;19.226;2022-07-24T12:20:38;3.03;;;0.70;;
58017;SDS011;43810;50.860;19.226;2022-07-24T12:23:10;0.85;;;0.85;;
58017;SDS011;43810;50.860;19.226;2022-07-24T12:25:37;2.45;;;0.80;;
58017;SDS011;43810;50.860;19.226;2022-07-24T12:28:06;0.85;;;0.85;;
58017;SDS011;43810;50.860;19.226;2022-07-24T12:30:42;1.17;;;0.80;;
58017;SDS011;43810;50.860;19.226;2022-07-24T12:33:09;0.80;;;0.80;;
58017;SDS011;43810;50.860;19.226;2022-07-24T12:36:00;1.30;;;0.60;;
58017;SDS011;43810;50.860;19.226;2022-07-24T12:41:00;0.90;;;0.70;;
58017;SDS011;43810;50.860;19.226;2022-07-24T12:43:26;4.68;;;1.05;;
58017;SDS011;43810;50.860;19.226;2022-07-24T12:46:09;2.97;;;0.93;;
58017;SDS011;43810;50.860;19.226;2022-07-24T12:48:35;2.30;;;0.93;;
58017;SDS011;43810;50.860;19.226;2022-07-24T12:51:02;1.92;;;0.80;;
58017;SDS011;43810;50.860;19.226;2022-07-24T12:53:28;1.98;;;1.00;;
58017;SDS011;43810;50.860;19.226;2022-07-24T12:56:05;1.20;;;0.90;;
58017;SDS011;43810;50.860;19.226;2022-07-24T13:04:11;1.58;;;0.90;;
58017;SDS011;43810;50.860;19.226;2022-07-24T13:06:40;1.42;;;1.00;;
58017;SDS011;43810;50.860;19.226;2022-07-24T13:09:07;1.80;;;1.23;;
58017;SDS011;43810;50.860;19.226;2022-07-24T13:11:34;2.15;;;1.55;;
58017;SDS011;43810;50.860;19.226;2022-07-24T13:14:00;0.98;;;0.98;;
58017;SDS011;43810;50.860;19.226;2022-07-24T13:16:29;4.57;;;1.05;;
58017;SDS011;43810;50.860;19.226;2022-07-24T13:18:56;1.98;;;0.93;;
58017;SDS011;43810;50.860;19.226;2022-07-24T13:21:22;0.93;;;0.85;;
58017;SDS011;43810;50.860;19.226;2022-07-24T13:23:48;8.50;;;1.13;;
58017;SDS011;43810;50.860;19.226;2022-07-24T13:26:13;1.50;;;0.90;;
58017;SDS011;43810;50.860;19.226;2022-07-24T13:28:39;2.30;;;0.85;;
58017;SDS011;43810;50.860;19.226;2022-07-24T13:31:05;0.70;;;0.70;;
58017;SDS011;43810;50.860;19.226;2022-07-24T13:33:31;1.58;;;1.23;;
58017;SDS011;43810;50.860;19.226;2022-07-24T13:35:56;1.85;;;1.00;;
58017;SDS011;43810;50.860;19.226;2022-07-24T13:38:22;0.85;;;0.80;;
58017;SDS011;43810;50.860;19.226;2022-07-24T13:40:48;0.93;;;0.93;;
58017;SDS011;43810;50.860;19.226;2022-07-24T13:43:13;2.88;;;1.13;;
58017;SDS011;43810;50.860;19.226;2022-07-24T13:45:39;0.70;;;0.70;;
58017;SDS011;43810;50.860;19.226;2022-07-24T13:48:05;1.15;;;1.00;;
58017;SDS011;43810;50.860;19.226;2022-07-24T13:50:30;0.82;;;0.80;;
58017;SDS011;43810;50.860;19.226;2022-07-24T13:52:56;1.70;;;0.85;;
58017;SDS011;43810;50.860;19.226;2022-07-24T13:55:22;1.27;;;1.17;;
58017;SDS011;43810;50.860;19.226;2022-07-24T13:57:47;1.17;;;0.90;;
58017;SDS011;43810;50.860;19.226;2022-07-24T14:00:13;1.10;;;0.85;;
58017;SDS011;43810;50.860;19.226;2022-07-24T14:02:39;2.33;;;0.98;;
58017;SDS011;43810;50.860;19.226;2022-07-24T14:05:04;1.65;;;0.90;;
58017;SDS011;43810;50.860;19.226;2022-07-24T14:07:30;0.80;;;0.80;;
58017;SDS011;43810;50.860;19.226;2022-07-24T14:09:56;1.02;;;0.93;;
58017;SDS011;43810;50.860;19.226;2022-07-24T14:12:21;1.80;;;0.68;;
58017;SDS011;43810;50.860;19.226;2022-07-24T14:14:47;2.10;;;0.80;;
58017;SDS011;43810;50.860;19.226;2022-07-24T14:17:12;1.25;;;0.95;;
58017;SDS011;43810;50.860;19.226;2022-07-24T14:19:38;0.68;;;0.63;;
58017;SDS011;43810;50.860;19.226;2022-07-24T14:22:04;0.82;;;0.82;;
58017;SDS011;43810;50.860;19.226;2022-07-24T14:24:30;2.17;;;0.80;;
58017;SDS011;43810;50.860;19.226;2022-07-24T14:26:55;0.90;;;0.90;;
58017;SDS011;43810;50.860;19.226;2022-07-24T14:29:20;1.48;;;0.80;;
58017;SDS011;43810;50.860;19.226;2022-07-24T14:31:46;0.70;;;0.70;;
58017;SDS011;43810;50.860;19.226;2022-07-24T14:34:12;1.80;;;0.80;;
58017;SDS011;43810;50.860;19.226;2022-07-24T14:36:38;1.75;;;0.90;;
58017;SDS011;43810;50.860;19.226;2022-07-24T14:39:03;1.02;;;0.90;;
58017;SDS011;43810;50.860;19.226;2022-07-24T14:41:29;1.42;;;0.95;;
58017;SDS011;43810;50.860;19.226;2022-07-24T14:43:54;2.47;;;0.82;;
58017;SDS011;43810;50.860;19.226;2022-07-24T14:46:20;0.90;;;0.70;;
58017;SDS011;43810;50.860;19.226;2022-07-24T14:48:46;4.28;;;1.15;;
58017;SDS011;43810;50.860;19.226;2022-07-24T14:51:11;1.27;;;0.73;;
58017;SDS011;43810;50.860;19.226;2022-07-24T14:53:37;1.10;;;1.00;;
58017;SDS011;43810;50.860;19.226;2022-07-24T14:56:02;3.35;;;0.75;;